sensor_id;sensor_type;location;lat;lon;timestamp;temperature;humidity
21849;DHT22;11089;49.852;19.700;2023-01-15T00:00:08;6.60;99.90
21849;DHT22;11089;49.852;19.700;2023-01-15T00:03:10;6.70;99.90
21849;DHT22;11089;49.852;19.700;2023-01-15T00:06:10;6.70;99.90
21849;DHT22;11089;49.852;19.700;2023-01-15T00:09:15;6.70;99.90
21849;DHT22;11089;49.852;19.700;2023-01-15T00:12:16;6.70;99.90
21849;DHT22;11089;49.852;19.700;2023-01-15T00:15:17;6.70;99.90
21849;DHT22;11089;49.852;19.700;2023-01-15T00:18:18;6.70;99.90
21849;DHT22;11089;49.852;19.700;2023-01-15T00:21:19;6.80;99.90
21849;DHT22;11089;49.852;19.700;2023-01-15T00:24:20;6.80;99.90
21849;DHT22;11089;49.852;19.700;2023-01-15T00:27:35;6.80;99.90
21849;DHT22;11089;49.852;19.700;2023-01-15T00:30:40;6.90;99.90
21849;DHT22;11089;49.852;19.700;2023-01-15T00:33:42;7.00;99.90
21849;DHT22;11089;49.852;19.700;2023-01-15T00:36:42;7.00;99.90
21849;DHT22;11089;49.852;19.700;2023-01-15T00:39:43;7.00;99.90
21849;DHT22;11089;49.852;19.700;2023-01-15T00:42:44;7.20;99.90
21849;DHT22;11089;49.852;19.700;2023-01-15T00:45:45;7.10;99.90
21849;DHT22;11089;49.852;19.700;2023-01-15T00:48:46;7.20;99.90
21849;DHT22;11089;49.852;19.700;2023-01-15T00:51:47;7.20;99.90
21849;DHT22;11089;49.852;19.700;2023-01-15T00:54:49;7.20;99.90
21849;DHT22;11089;49.852;19.700;2023-01-15T00:57:50;7.20;99.90
21849;DHT22;11089;49.852;19.700;2023-01-15T01:00:55;7.20;99.90
21849;DHT22;11089;49.852;19.700;2023-01-15T01:03:56;7.20;99.90
21849;DHT22;11089;49.852;19.700;2023-01-15T01:06:57;7.40;99.90
21849;DHT22;11089;49.852;19.700;2023-01-15T01:09:58;7.40;99.90
21849;DHT22;11089;49.852;19.700;2023-01-15T01:12:59;7.40;99.90
21849;DHT22;11089;49.852;19.700;2023-01-15T01:16:00;7.40;99.90
21849;DHT22;11089;49.852;19.700;2023-01-15T01:19:03;7.50;99.90
21849;DHT22;11089;49.852;19.700;2023-01-15T01:22:05;7.40;99.90
21849;DHT22;11089;49.852;19.700;2023-01-15T01:25:06;7.40;99.90
21849;DHT22;11089;49.852;19.700;2023-01-15T01:28:07;7.40;99.90
21849;DHT22;11089;49.852;19.700;2023-01-15T01:31:09;7.40;99.90
21849;DHT22;11089;49.852;19.700;2023-01-15T01:34:11;7.40;99.90
21849;DHT22;11089;49.852;19.700;2023-01-15T01:37:12;7.50;99.90
21849;DHT22;11089;49.852;19.700;2023-01-15T01:40:13;7.50;99.90
21849;DHT22;11089;49.852;19.700;2023-01-15T01:43:20;7.50;99.90
21849;DHT22;11089;49.852;19.700;2023-01-15T01:46:21;7.50;99.90
21849;DHT22;11089;49.852;19.700;2023-01-15T01:49:22;7.60;99.90
21849;DHT22;11089;49.852;19.700;2023-01-15T01:52:27;7.60;99.90
21849;DHT22;11089;49.852;19.700;2023-01-15T01:55:30;7.60;99.90
21849;DHT22;11089;49.852;19.700;2023-01-15T01:58:32;7.60;99.90
21849;DHT22;11089;49.852;19.700;2023-01-15T02:01:34;7.60;99.90
21849;DHT22;11089;49.852;19.700;2023-01-15T02:04:35;7.60;99.90
21849;DHT22;11089;49.852;19.700;2023-01-15T02:07:37;7.60;99.90
21849;DHT22;11089;49.852;19.700;2023-01-15T02:10:38;7.60;99.90
21849;DHT22;11089;49.852;19.700;2023-01-15T02:13:44;7.70;99.90
21849;DHT22;11089;49.852;19.700;2023-01-15T02:26:49;7.70;99.90
21849;DHT22;11089;49.852;19.700;2023-01-15T02:30:24;7.70;99.90
21849;DHT22;11089;49.852;19.700;2023-01-15T02:33:37;7.80;99.90
21849;DHT22;11089;49.852;19.700;2023-01-15T02:36:43;7.70;99.90
21849;DHT22;11089;49.852;19.700;2023-01-15T02:39:46;7.80;99.90
21849;DHT22;11089;49.852;19.700;2023-01-15T02:42:49;7.80;99.90
21849;DHT22;11089;49.852;19.700;2023-01-15T02:45:53;7.80;99.90
21849;DHT22;11089;49.852;19.700;2023-01-15T02:48:57;7.70;99.90
21849;DHT22;11089;49.852;19.700;2023-01-15T02:52:16;7.70;99.90
21849;DHT22;11089;49.852;19.700;2023-01-15T02:55:26;7.70;99.90
21849;DHT22;11089;49.852;19.700;2023-01-15T02:58:30;7.70;99.90
21849;DHT22;11089;49.852;19.700;2023-01-15T03:01:57;7.70;99.90
21849;DHT22;11089;49.852;19.700;2023-01-15T03:05:09;7.60;99.90
21849;DHT22;11089;49.852;19.700;2023-01-15T03:08:11;7.70;99.90
21849;DHT22;11089;49.852;19.700;2023-01-15T03:11:14;7.70;99.90
21849;DHT22;11089;49.852;19.700;2023-01-15T03:14:23;7.60;99.90
21849;DHT22;11089;49.852;19.700;2023-01-15T03:17:36;7.60;99.90
21849;DHT22;11089;49.852;19.700;2023-01-15T03:20:42;7.60;99.90
21849;DHT22;11089;49.852;19.700;2023-01-15T03:23:50;7.60;99.90
21849;DHT22;11089;49.852;19.700;2023-01-15T03:26:52;7.60;99.90
21849;DHT22;11089;49.852;19.700;2023-01-15T03:29:57;7.70;99.90
21849;DHT22;11089;49.852;19.700;2023-01-15T03:32:58;7.70;99.90
21849;DHT22;11089;49.852;19.700;2023-01-15T03:36:00;7.70;99.90
21849;DHT22;11089;49.852;19.700;2023-01-15T03:39:01;7.70;99.90
21849;DHT22;11089;49.852;19.700;2023-01-15T03:45:29;7.70;99.90
21849;DHT22;11089;49.852;19.700;2023-01-15T03:48:41;7.80;99.90
21849;DHT22;11089;49.852;19.700;2023-01-15T03:58:06;7.60;99.90
21849;DHT22;11089;49.852;19.700;2023-01-15T04:01:12;7.60;99.90
21849;DHT22;11089;49.852;19.700;2023-01-15T04:04:15;7.60;99.90
21849;DHT22;11089;49.852;19.700;2023-01-15T04:07:17;7.60;99.90
21849;DHT22;11089;49.852;19.700;2023-01-15T04:10:24;7.60;99.90
21849;DHT22;11089;49.852;19.700;2023-01-15T04:13:25;7.60;99.90
21849;DHT22;11089;49.852;19.700;2023-01-15T04:16:30;7.60;99.90
21849;DHT22;11089;49.852;19.700;2023-01-15T04:19:31;7.60;99.90
21849;DHT22;11089;49.852;19.700;2023-01-15T04:22:32;7.60;99.90
21849;DHT22;11089;49.852;19.700;2023-01-15T04:25:33;7.60;99.90
21849;DHT22;11089;49.852;19.700;2023-01-15T04:28:33;7.70;99.90
21849;DHT22;11089;49.852;19.700;2023-01-15T04:31:34;7.70;99.90
21849;DHT22;11089;49.852;19.700;2023-01-15T04:34:35;7.70;99.90
21849;DHT22;11089;49.852;19.700;2023-01-15T04:37:36;7.80;99.90
21849;DHT22;11089;49.852;19.700;2023-01-15T04:40:37;7.80;99.90
21849;DHT22;11089;49.852;19.700;2023-01-15T04:43:52;7.80;99.90
21849;DHT22;11089;49.852;19.700;2023-01-15T04:47:07;7.80;99.90
21849;DHT22;11089;49.852;19.700;2023-01-15T04:50:08;7.80;99.90
21849;DHT22;11089;49.852;19.700;2023-01-15T04:53:10;7.80;99.90
21849;DHT22;11089;49.852;19.700;2023-01-15T04:56:11;7.80;99.90
21849;DHT22;11089;49.852;19.700;2023-01-15T04:59:13;7.80;99.90
21849;DHT22;11089;49.852;19.700;2023-01-15T05:02:14;7.80;99.90
21849;DHT22;11089;49.852;19.700;2023-01-15T05:05:15;7.80;99.90
21849;DHT22;11089;49.852;19.700;2023-01-15T05:08:16;7.80;99.90
21849;DHT22;11089;49.852;19.700;2023-01-15T05:11:17;7.80;99.90
21849;DHT22;11089;49.852;19.700;2023-01-15T05:14:18;7.80;99.90
21849;DHT22;11089;49.852;19.700;2023-01-15T05:17:19;7.80;99.90
21849;DHT22;11089;49.852;19.700;2023-01-15T05:20:20;7.70;99.90
21849;DHT22;11089;49.852;19.700;2023-01-15T05:23:20;7.70;99.90
21849;DHT22;11089;49.852;19.700;2023-01-15T05:26:22;7.60;99.90
21849;DHT22;11089;49.852;19.700;2023-01-15T05:29:23;7.60;99.90
21849;DHT22;11089;49.852;19.700;2023-01-15T05:32:24;7.60;99.90
21849;DHT22;11089;49.852;19.700;2023-01-15T05:35:24;7.60;99.90
21849;DHT22;11089;49.852;19.700;2023-01-15T05:38:25;7.60;99.90
21849;DHT22;11089;49.852;19.700;2023-01-15T05:41:27;7.70;99.90
21849;DHT22;11089;49.852;19.700;2023-01-15T05:44:42;7.70;99.90
21849;DHT22;11089;49.852;19.700;2023-01-15T05:47:43;7.70;99.90
21849;DHT22;11089;49.852;19.700;2023-01-15T05:50:44;7.80;99.90
21849;DHT22;11089;49.852;19.700;2023-01-15T05:53:45;7.80;99.90
21849;DHT22;11089;49.852;19.700;2023-01-15T05:56:46;7.80;99.90
21849;DHT22;11089;49.852;19.700;2023-01-15T05:59:48;7.80;99.90
21849;DHT22;11089;49.852;19.700;2023-01-15T06:02:50;7.90;99.90
21849;DHT22;11089;49.852;19.700;2023-01-15T06:05:52;7.80;99.90
21849;DHT22;11089;49.852;19.700;2023-01-15T06:08:53;7.90;99.90
21849;DHT22;11089;49.852;19.700;2023-01-15T06:11:54;7.90;99.90
21849;DHT22;11089;49.852;19.700;2023-01-15T06:14:55;7.90;99.90
21849;DHT22;11089;49.852;19.700;2023-01-15T06:17:56;7.90;99.90
21849;DHT22;11089;49.852;19.700;2023-01-15T06:20:56;7.90;99.90
21849;DHT22;11089;49.852;19.700;2023-01-15T06:24:02;7.90;99.90
21849;DHT22;11089;49.852;19.700;2023-01-15T06:27:03;7.90;99.90
21849;DHT22;11089;49.852;19.700;2023-01-15T06:30:04;8.00;99.90
21849;DHT22;11089;49.852;19.700;2023-01-15T06:33:06;8.00;99.90
21849;DHT22;11089;49.852;19.700;2023-01-15T06:36:16;8.00;99.90
21849;DHT22;11089;49.852;19.700;2023-01-15T06:39:17;8.00;99.90
21849;DHT22;11089;49.852;19.700;2023-01-15T06:42:18;8.10;99.90
21849;DHT22;11089;49.852;19.700;2023-01-15T06:45:37;8.20;99.90
21849;DHT22;11089;49.852;19.700;2023-01-15T06:48:53;8.20;99.90
21849;DHT22;11089;49.852;19.700;2023-01-15T06:51:54;8.20;99.90
21849;DHT22;11089;49.852;19.700;2023-01-15T06:54:55;8.20;99.90
21849;DHT22;11089;49.852;19.700;2023-01-15T06:57:55;8.20;99.90
21849;DHT22;11089;49.852;19.700;2023-01-15T07:00:56;8.20;99.90
21849;DHT22;11089;49.852;19.700;2023-01-15T07:03:57;8.30;99.90
21849;DHT22;11089;49.852;19.700;2023-01-15T07:06:58;8.30;99.90
21849;DHT22;11089;49.852;19.700;2023-01-15T07:09:59;8.30;99.90
21849;DHT22;11089;49.852;19.700;2023-01-15T07:13:00;8.30;99.90
21849;DHT22;11089;49.852;19.700;2023-01-15T07:16:02;8.30;99.90
21849;DHT22;11089;49.852;19.700;2023-01-15T07:19:03;8.30;99.90
21849;DHT22;11089;49.852;19.700;2023-01-15T07:22:05;8.30;99.90
21849;DHT22;11089;49.852;19.700;2023-01-15T07:25:07;8.30;99.90
21849;DHT22;11089;49.852;19.700;2023-01-15T07:28:08;8.40;99.90
21849;DHT22;11089;49.852;19.700;2023-01-15T07:31:08;8.40;99.90
21849;DHT22;11089;49.852;19.700;2023-01-15T07:34:09;8.40;99.90
21849;DHT22;11089;49.852;19.700;2023-01-15T07:37:11;8.40;99.90
21849;DHT22;11089;49.852;19.700;2023-01-15T07:40:12;8.50;99.90
21849;DHT22;11089;49.852;19.700;2023-01-15T07:43:12;8.40;99.90
21849;DHT22;11089;49.852;19.700;2023-01-15T07:46:29;8.50;99.90
21849;DHT22;11089;49.852;19.700;2023-01-15T07:49:43;8.50;99.90
21849;DHT22;11089;49.852;19.700;2023-01-15T07:52:45;8.60;99.90
21849;DHT22;11089;49.852;19.700;2023-01-15T07:55:46;8.60;99.90
21849;DHT22;11089;49.852;19.700;2023-01-15T07:58:47;8.70;99.90
21849;DHT22;11089;49.852;19.700;2023-01-15T08:01:49;8.80;99.90
21849;DHT22;11089;49.852;19.700;2023-01-15T08:04:50;8.80;99.90
21849;DHT22;11089;49.852;19.700;2023-01-15T08:07:51;8.90;99.90
21849;DHT22;11089;49.852;19.700;2023-01-15T08:10:52;9.00;99.90
21849;DHT22;11089;49.852;19.700;2023-01-15T08:14:09;9.10;99.90
21849;DHT22;11089;49.852;19.700;2023-01-15T08:17:23;9.10;99.90
21849;DHT22;11089;49.852;19.700;2023-01-15T08:20:25;9.10;99.90
21849;DHT22;11089;49.852;19.700;2023-01-15T08:23:26;9.10;99.90
21849;DHT22;11089;49.852;19.700;2023-01-15T08:26:27;9.10;99.90
21849;DHT22;11089;49.852;19.700;2023-01-15T08:29:28;9.10;99.90
21849;DHT22;11089;49.852;19.700;2023-01-15T08:32:29;9.10;99.90
21849;DHT22;11089;49.852;19.700;2023-01-15T08:35:30;9.10;99.90
21849;DHT22;11089;49.852;19.700;2023-01-15T08:38:31;9.20;99.90
21849;DHT22;11089;49.852;19.700;2023-01-15T08:41:32;9.20;99.90
21849;DHT22;11089;49.852;19.700;2023-01-15T08:44:33;9.20;99.90
21849;DHT22;11089;49.852;19.700;2023-01-15T08:47:34;9.20;99.90
21849;DHT22;11089;49.852;19.700;2023-01-15T08:50:36;9.20;99.90
21849;DHT22;11089;49.852;19.700;2023-01-15T08:53:37;9.30;99.90
21849;DHT22;11089;49.852;19.700;2023-01-15T08:56:38;9.30;99.90
21849;DHT22;11089;49.852;19.700;2023-01-15T08:59:39;9.20;99.90
21849;DHT22;11089;49.852;19.700;2023-01-15T09:02:42;9.20;99.90
21849;DHT22;11089;49.852;19.700;2023-01-15T09:05:43;9.20;99.90
21849;DHT22;11089;49.852;19.700;2023-01-15T09:08:44;9.20;99.90
21849;DHT22;11089;49.852;19.700;2023-01-15T09:11:45;9.20;99.90
21849;DHT22;11089;49.852;19.700;2023-01-15T09:14:46;9.20;99.90
21849;DHT22;11089;49.852;19.700;2023-01-15T09:17:47;9.20;99.90
21849;DHT22;11089;49.852;19.700;2023-01-15T09:20:48;9.20;99.90
21849;DHT22;11089;49.852;19.700;2023-01-15T09:23:49;9.20;99.90
21849;DHT22;11089;49.852;19.700;2023-01-15T09:26:50;9.30;99.90
21849;DHT22;11089;49.852;19.700;2023-01-15T09:29:53;9.30;99.90
21849;DHT22;11089;49.852;19.700;2023-01-15T09:32:53;9.30;99.90
21849;DHT22;11089;49.852;19.700;2023-01-15T09:35:54;9.20;99.90
21849;DHT22;11089;49.852;19.700;2023-01-15T09:38:56;9.30;99.90
21849;DHT22;11089;49.852;19.700;2023-01-15T09:45:24;9.20;99.90
21849;DHT22;11089;49.852;19.700;2023-01-15T09:48:46;9.20;99.90
21849;DHT22;11089;49.852;19.700;2023-01-15T09:52:14;9.10;99.90
21849;DHT22;11089;49.852;19.700;2023-01-15T09:55:29;9.10;99.90
21849;DHT22;11089;49.852;19.700;2023-01-15T09:58:37;9.10;99.90
21849;DHT22;11089;49.852;19.700;2023-01-15T10:01:38;9.00;99.90
21849;DHT22;11089;49.852;19.700;2023-01-15T10:04:44;9.00;99.90
21849;DHT22;11089;49.852;19.700;2023-01-15T10:08:00;9.00;99.90
21849;DHT22;11089;49.852;19.700;2023-01-15T10:14:59;8.90;99.90
21849;DHT22;11089;49.852;19.700;2023-01-15T10:18:02;8.80;99.90
21849;DHT22;11089;49.852;19.700;2023-01-15T10:24:15;8.70;99.90
21849;DHT22;11089;49.852;19.700;2023-01-15T10:27:28;8.70;99.90
21849;DHT22;11089;49.852;19.700;2023-01-15T10:30:51;8.70;99.90
21849;DHT22;11089;49.852;19.700;2023-01-15T10:37:41;8.70;99.90
21849;DHT22;11089;49.852;19.700;2023-01-15T10:44:54;8.70;99.90
21849;DHT22;11089;49.852;19.700;2023-01-15T10:47:36;8.70;99.90
21849;DHT22;11089;49.852;19.700;2023-01-15T10:50:38;8.60;99.90
21849;DHT22;11089;49.852;19.700;2023-01-15T11:00:03;8.60;99.90
21849;DHT22;11089;49.852;19.700;2023-01-15T11:03:09;8.50;99.90
21849;DHT22;11089;49.852;19.700;2023-01-15T11:06:16;8.40;99.90
21849;DHT22;11089;49.852;19.700;2023-01-15T11:09:20;8.30;99.90
21849;DHT22;11089;49.852;19.700;2023-01-15T11:12:27;8.30;99.90
21849;DHT22;11089;49.852;19.700;2023-01-15T11:15:49;8.30;99.90
21849;DHT22;11089;49.852;19.700;2023-01-15T11:19:15;8.30;99.90
21849;DHT22;11089;49.852;19.700;2023-01-15T11:22:37;8.20;99.90
21849;DHT22;11089;49.852;19.700;2023-01-15T11:25:46;8.20;99.90
21849;DHT22;11089;49.852;19.700;2023-01-15T11:28:48;8.10;99.90
21849;DHT22;11089;49.852;19.700;2023-01-15T11:31:49;8.10;99.90
21849;DHT22;11089;49.852;19.700;2023-01-15T11:34:54;8.10;99.90
21849;DHT22;11089;49.852;19.700;2023-01-15T11:38:06;8.00;99.90
21849;DHT22;11089;49.852;19.700;2023-01-15T11:41:22;8.00;99.90
21849;DHT22;11089;49.852;19.700;2023-01-15T11:44:25;7.90;99.90
21849;DHT22;11089;49.852;19.700;2023-01-15T11:47:38;7.90;99.90
21849;DHT22;11089;49.852;19.700;2023-01-15T11:51:00;7.80;99.90
21849;DHT22;11089;49.852;19.700;2023-01-15T11:54:04;7.80;99.90
21849;DHT22;11089;49.852;19.700;2023-01-15T11:57:07;7.60;99.90
21849;DHT22;11089;49.852;19.700;2023-01-15T12:00:31;7.50;99.90
21849;DHT22;11089;49.852;19.700;2023-01-15T12:03:34;7.50;1.00
21849;DHT22;11089;49.852;19.700;2023-01-15T12:06:38;7.40;1.00
21849;DHT22;11089;49.852;19.700;2023-01-15T12:16:01;7.50;1.00
21849;DHT22;11089;49.852;19.700;2023-01-15T12:29:10;7.40;1.00
21849;DHT22;11089;49.852;19.700;2023-01-15T12:32:17;7.40;1.00
21849;DHT22;11089;49.852;19.700;2023-01-15T12:35:31;7.50;1.00
21849;DHT22;11089;49.852;19.700;2023-01-15T12:38:43;7.30;1.00
21849;DHT22;11089;49.852;19.700;2023-01-15T12:41:51;7.30;1.00
21849;DHT22;11089;49.852;19.700;2023-01-15T12:45:15;7.40;1.00
21849;DHT22;11089;49.852;19.700;2023-01-15T12:48:38;7.40;1.00
21849;DHT22;11089;49.852;19.700;2023-01-15T12:52:06;7.40;20.10
21849;DHT22;11089;49.852;19.700;2023-01-15T12:55:25;7.40;1.00
21849;DHT22;11089;49.852;19.700;2023-01-15T13:11:33;7.70;1.00
21849;DHT22;11089;49.852;19.700;2023-01-15T13:14:34;7.80;1.00
21849;DHT22;11089;49.852;19.700;2023-01-15T13:21:16;7.90;1.00
21849;DHT22;11089;49.852;19.700;2023-01-15T13:34:49;8.10;1.00
21849;DHT22;11089;49.852;19.700;2023-01-15T13:37:53;8.10;1.00
21849;DHT22;11089;49.852;19.700;2023-01-15T13:40:56;8.10;1.00
21849;DHT22;11089;49.852;19.700;2023-01-15T13:44:00;8.10;1.00
21849;DHT22;11089;49.852;19.700;2023-01-15T13:47:06;8.20;1.00
21849;DHT22;11089;49.852;19.700;2023-01-15T13:50:39;8.20;1.00
21849;DHT22;11089;49.852;19.700;2023-01-15T13:53:46;8.20;1.00
21849;DHT22;11089;49.852;19.700;2023-01-15T13:56:47;8.20;1.00
21849;DHT22;11089;49.852;19.700;2023-01-15T13:59:49;8.20;1.00
21849;DHT22;11089;49.852;19.700;2023-01-15T14:02:53;8.20;1.00
21849;DHT22;11089;49.852;19.700;2023-01-15T14:06:13;8.20;1.00
21849;DHT22;11089;49.852;19.700;2023-01-15T14:12:50;8.30;1.00
21849;DHT22;11089;49.852;19.700;2023-01-15T14:16:07;8.30;1.00
21849;DHT22;11089;49.852;19.700;2023-01-15T14:19:23;8.30;1.00
21849;DHT22;11089;49.852;19.700;2023-01-15T14:22:34;8.40;1.00
21849;DHT22;11089;49.852;19.700;2023-01-15T14:35:45;8.40;1.00
21849;DHT22;11089;49.852;19.700;2023-01-15T14:38:50;8.40;1.00
21849;DHT22;11089;49.852;19.700;2023-01-15T14:42:10;8.40;1.00
21849;DHT22;11089;49.852;19.700;2023-01-15T14:45:33;8.30;1.00
21849;DHT22;11089;49.852;19.700;2023-01-15T14:48:37;8.30;1.00
21849;DHT22;11089;49.852;19.700;2023-01-15T14:51:48;8.30;1.00
21849;DHT22;11089;49.852;19.700;2023-01-15T14:54:51;8.30;1.00
21849;DHT22;11089;49.852;19.700;2023-01-15T14:58:01;8.30;1.00
21849;DHT22;11089;49.852;19.700;2023-01-15T15:04:38;8.30;1.00
21849;DHT22;11089;49.852;19.700;2023-01-15T15:07:43;8.30;1.00
21849;DHT22;11089;49.852;19.700;2023-01-15T15:10:50;8.30;1.00
21849;DHT22;11089;49.852;19.700;2023-01-15T15:13:55;8.40;1.00
21849;DHT22;11089;49.852;19.700;2023-01-15T15:16:59;8.40;1.00
21849;DHT22;11089;49.852;19.700;2023-01-15T15:26:51;8.40;1.00
21849;DHT22;11089;49.852;19.700;2023-01-15T15:30:03;8.40;1.00
21849;DHT22;11089;49.852;19.700;2023-01-15T15:33:04;8.30;1.00
21849;DHT22;11089;49.852;19.700;2023-01-15T15:36:07;8.40;1.00
21849;DHT22;11089;49.852;19.700;2023-01-15T15:46:30;8.30;1.00
21849;DHT22;11089;49.852;19.700;2023-01-15T15:49:45;8.30;1.00
21849;DHT22;11089;49.852;19.700;2023-01-15T15:52:48;8.30;1.00
21849;DHT22;11089;49.852;19.700;2023-01-15T15:55:50;8.30;1.00
21849;DHT22;11089;49.852;19.700;2023-01-15T15:58:52;8.20;1.00
21849;DHT22;11089;49.852;19.700;2023-01-15T16:01:57;8.20;1.00
21849;DHT22;11089;49.852;19.700;2023-01-15T16:05:20;8.30;1.00
21849;DHT22;11089;49.852;19.700;2023-01-15T16:08:21;8.20;1.00
21849;DHT22;11089;49.852;19.700;2023-01-15T16:11:24;8.30;1.00
21849;DHT22;11089;49.852;19.700;2023-01-15T16:14:33;8.20;1.00
21849;DHT22;11089;49.852;19.700;2023-01-15T16:17:37;8.10;1.00
21849;DHT22;11089;49.852;19.700;2023-01-15T16:20:39;8.10;1.00
21849;DHT22;11089;49.852;19.700;2023-01-15T16:23:40;8.10;1.00
21849;DHT22;11089;49.852;19.700;2023-01-15T16:26:48;8.10;1.00
21849;DHT22;11089;49.852;19.700;2023-01-15T16:29:52;8.00;1.00
21849;DHT22;11089;49.852;19.700;2023-01-15T16:33:02;8.00;1.00
21849;DHT22;11089;49.852;19.700;2023-01-15T16:36:04;7.90;1.00
21849;DHT22;11089;49.852;19.700;2023-01-15T16:39:24;7.90;99.90
21849;DHT22;11089;49.852;19.700;2023-01-15T16:42:30;7.70;1.00
21849;DHT22;11089;49.852;19.700;2023-01-15T16:45:33;7.60;1.00
21849;DHT22;11089;49.852;19.700;2023-01-15T16:48:36;7.60;1.00
21849;DHT22;11089;49.852;19.700;2023-01-15T16:51:37;7.50;1.00
21849;DHT22;11089;49.852;19.700;2023-01-15T16:54:43;7.50;99.90
21849;DHT22;11089;49.852;19.700;2023-01-15T16:57:44;7.50;99.90
21849;DHT22;11089;49.852;19.700;2023-01-15T17:00:52;7.40;99.90
21849;DHT22;11089;49.852;19.700;2023-01-15T17:03:55;7.40;1.00
21849;DHT22;11089;49.852;19.700;2023-01-15T17:07:01;7.30;99.90
21849;DHT22;11089;49.852;19.700;2023-01-15T17:10:04;7.30;1.00
21849;DHT22;11089;49.852;19.700;2023-01-15T17:13:16;7.20;1.00
21849;DHT22;11089;49.852;19.700;2023-01-15T17:16:20;7.10;1.00
21849;DHT22;11089;49.852;19.700;2023-01-15T17:19:21;7.20;1.00
21849;DHT22;11089;49.852;19.700;2023-01-15T17:22:25;7.20;1.00
21849;DHT22;11089;49.852;19.700;2023-01-15T17:25:31;7.20;1.00
21849;DHT22;11089;49.852;19.700;2023-01-15T17:28:32;7.20;99.90
21849;DHT22;11089;49.852;19.700;2023-01-15T17:31:34;7.20;1.00
21849;DHT22;11089;49.852;19.700;2023-01-15T17:34:36;7.10;99.90
21849;DHT22;11089;49.852;19.700;2023-01-15T17:37:36;7.10;99.90
21849;DHT22;11089;49.852;19.700;2023-01-15T17:40:37;7.10;1.00
21849;DHT22;11089;49.852;19.700;2023-01-15T17:43:39;7.00;1.00
21849;DHT22;11089;49.852;19.700;2023-01-15T17:46:40;6.90;99.90
21849;DHT22;11089;49.852;19.700;2023-01-15T17:49:41;6.90;99.90
21849;DHT22;11089;49.852;19.700;2023-01-15T17:52:42;6.80;1.00
21849;DHT22;11089;49.852;19.700;2023-01-15T17:55:43;6.70;1.00
21849;DHT22;11089;49.852;19.700;2023-01-15T17:58:57;6.60;1.00
21849;DHT22;11089;49.852;19.700;2023-01-15T18:02:14;6.60;1.00
21849;DHT22;11089;49.852;19.700;2023-01-15T18:05:29;6.50;1.00
21849;DHT22;11089;49.852;19.700;2023-01-15T18:08:35;6.40;71.70
21849;DHT22;11089;49.852;19.700;2023-01-15T18:11:36;6.30;1.00
21849;DHT22;11089;49.852;19.700;2023-01-15T18:14:37;6.30;99.90
21849;DHT22;11089;49.852;19.700;2023-01-15T18:17:38;6.30;1.00
21849;DHT22;11089;49.852;19.700;2023-01-15T18:20:39;6.30;1.00
21849;DHT22;11089;49.852;19.700;2023-01-15T18:23:40;6.20;1.00
21849;DHT22;11089;49.852;19.700;2023-01-15T18:26:41;6.20;99.90
21849;DHT22;11089;49.852;19.700;2023-01-15T18:29:42;6.00;1.00
21849;DHT22;11089;49.852;19.700;2023-01-15T18:32:43;6.00;1.00
21849;DHT22;11089;49.852;19.700;2023-01-15T18:35:45;6.00;1.00
21849;DHT22;11089;49.852;19.700;2023-01-15T18:38:46;5.90;99.90
21849;DHT22;11089;49.852;19.700;2023-01-15T18:41:48;5.90;1.00
21849;DHT22;11089;49.852;19.700;2023-01-15T18:44:49;5.90;1.00
21849;DHT22;11089;49.852;19.700;2023-01-15T18:48:04;5.80;99.90
21849;DHT22;11089;49.852;19.700;2023-01-15T18:51:09;5.80;1.00
21849;DHT22;11089;49.852;19.700;2023-01-15T18:54:10;5.70;1.00
21849;DHT22;11089;49.852;19.700;2023-01-15T18:57:12;5.70;1.00
21849;DHT22;11089;49.852;19.700;2023-01-15T19:00:13;5.60;1.00
21849;DHT22;11089;49.852;19.700;2023-01-15T19:03:14;5.40;1.00
21849;DHT22;11089;49.852;19.700;2023-01-15T19:06:15;5.40;1.00
21849;DHT22;11089;49.852;19.700;2023-01-15T19:09:16;5.30;1.00
21849;DHT22;11089;49.852;19.700;2023-01-15T19:12:20;5.20;1.00
21849;DHT22;11089;49.852;19.700;2023-01-15T19:15:21;5.30;99.90
21849;DHT22;11089;49.852;19.700;2023-01-15T19:18:36;5.20;99.90
21849;DHT22;11089;49.852;19.700;2023-01-15T19:21:52;5.20;1.00
21849;DHT22;11089;49.852;19.700;2023-01-15T19:25:08;5.20;35.50
21849;DHT22;11089;49.852;19.700;2023-01-15T19:28:12;5.20;1.00
21849;DHT22;11089;49.852;19.700;2023-01-15T19:31:15;5.20;1.00
21849;DHT22;11089;49.852;19.700;2023-01-15T19:34:30;5.20;99.90
21849;DHT22;11089;49.852;19.700;2023-01-15T19:37:32;5.20;1.00
21849;DHT22;11089;49.852;19.700;2023-01-15T19:40:39;5.20;1.00
21849;DHT22;11089;49.852;19.700;2023-01-15T19:43:41;5.10;1.00
21849;DHT22;11089;49.852;19.700;2023-01-15T19:46:56;5.10;1.90
21849;DHT22;11089;49.852;19.700;2023-01-15T19:50:31;5.10;99.90
21849;DHT22;11089;49.852;19.700;2023-01-15T19:53:33;5.10;99.90
21849;DHT22;11089;49.852;19.700;2023-01-15T19:56:36;5.00;77.30
21849;DHT22;11089;49.852;19.700;2023-01-15T19:59:37;5.00;99.90
21849;DHT22;11089;49.852;19.700;2023-01-15T20:02:38;5.00;1.00
21849;DHT22;11089;49.852;19.700;2023-01-15T20:05:41;4.90;1.00
21849;DHT22;11089;49.852;19.700;2023-01-15T20:08:42;4.90;1.00
21849;DHT22;11089;49.852;19.700;2023-01-15T20:11:43;4.70;99.90
21849;DHT22;11089;49.852;19.700;2023-01-15T20:15:13;4.60;1.00
21849;DHT22;11089;49.852;19.700;2023-01-15T20:18:14;4.60;47.50
21849;DHT22;11089;49.852;19.700;2023-01-15T20:21:16;4.50;99.90
21849;DHT22;11089;49.852;19.700;2023-01-15T20:24:18;4.40;99.90
21849;DHT22;11089;49.852;19.700;2023-01-15T20:27:19;4.40;1.00
21849;DHT22;11089;49.852;19.700;2023-01-15T20:30:21;4.40;1.00
21849;DHT22;11089;49.852;19.700;2023-01-15T20:33:23;4.40;1.00
21849;DHT22;11089;49.852;19.700;2023-01-15T20:36:24;4.40;1.00
21849;DHT22;11089;49.852;19.700;2023-01-15T20:39:25;4.40;1.00
21849;DHT22;11089;49.852;19.700;2023-01-15T20:42:26;4.30;1.00
21849;DHT22;11089;49.852;19.700;2023-01-15T20:45:41;4.30;1.00
21849;DHT22;11089;49.852;19.700;2023-01-15T20:48:42;4.20;1.00
21849;DHT22;11089;49.852;19.700;2023-01-15T20:51:57;4.20;1.00
21849;DHT22;11089;49.852;19.700;2023-01-15T20:54:58;4.20;1.00
21849;DHT22;11089;49.852;19.700;2023-01-15T20:57:59;4.20;1.00
21849;DHT22;11089;49.852;19.700;2023-01-15T21:01:01;4.20;1.00
21849;DHT22;11089;49.852;19.700;2023-01-15T21:04:03;4.20;1.00
21849;DHT22;11089;49.852;19.700;2023-01-15T21:07:04;4.20;1.00
21849;DHT22;11089;49.852;19.700;2023-01-15T21:10:08;4.20;1.00
21849;DHT22;11089;49.852;19.700;2023-01-15T21:13:09;4.20;1.00
21849;DHT22;11089;49.852;19.700;2023-01-15T21:16:13;4.20;99.90
21849;DHT22;11089;49.852;19.700;2023-01-15T21:19:15;4.20;1.00
21849;DHT22;11089;49.852;19.700;2023-01-15T21:22:15;4.20;1.00
21849;DHT22;11089;49.852;19.700;2023-01-15T21:25:16;4.20;1.00
21849;DHT22;11089;49.852;19.700;2023-01-15T21:28:17;4.20;1.00
21849;DHT22;11089;49.852;19.700;2023-01-15T21:31:18;4.20;95.50